Time;durP1;ratioP1;P1;durP2;ratioP2;P2;SDS_P1;SDS_P2;PMS_P1;PMS_P2;Temp;Humidity;BMP_temperature;BMP_pressure;BME280_temperature;BME280_humidity;BME280_pressure;Samples;Min_cycle;Max_cycle;Signal;HPM_P1;HPM_P2
2022/11/17 00:02:02;;;;;;;6.33;4.70;;;10.70;99.90;;;;;;5033006;28;20548;-75
2022/11/17 00:04:30;;;;;;;5.07;4.57;;;10.70;99.90;;;;;;5032659;28;20202;-76
2022/11/17 00:06:57;;;;;;;4.63;4.23;;;10.70;99.90;;;;;;5033147;28;20548;-75
2022/11/17 00:09:22;;;;;;;6.03;5.47;;;10.70;99.90;;;;;;5033331;28;20402;-75
2022/11/17 00:14:40;;;;;;;5.10;4.23;;;11.00;99.90;;;;;;5033119;28;20282;-75
2022/11/17 00:17:11;;;;;;;6.43;4.70;;;10.90;99.90;;;;;;5031946;28;20881;-75
2022/11/17 00:22:21;;;;;;;5.20;4.70;;;11.10;99.90;;;;;;5032888;28;20450;-75
2022/11/17 00:24:48;;;;;;;5.67;4.77;;;10.90;99.90;;;;;;5032644;28;20901;-75
2022/11/17 00:27:14;;;;;;;7.60;5.30;;;11.00;99.90;;;;;;5031502;28;20434;-75
2022/11/17 00:29:39;;;;;;;8.13;6.13;;;10.90;99.90;;;;;;5035437;28;20482;-75
2022/11/17 00:34:57;;;;;;;5.03;4.53;;;10.90;99.90;;;;;;5036428;28;20326;-75
2022/11/17 00:37:24;;;;;;;4.90;4.40;;;11.00;99.90;;;;;;5036839;28;20543;-76
2022/11/17 00:39:49;;;;;;;6.07;5.13;;;11.10;99.90;;;;;;5036772;28;20640;-76
2022/11/17 00:42:15;;;;;;;7.47;5.60;;;11.20;99.90;;;;;;5035568;28;20454;-75
2022/11/17 00:44:40;;;;;;;4.87;3.87;;;11.10;99.90;;;;;;5036542;28;20270;-75
2022/11/17 00:47:06;;;;;;;4.47;3.60;;;11.10;99.90;;;;;;5036391;28;20167;-75
2022/11/17 00:49:31;;;;;;;5.37;4.20;;;11.10;99.90;;;;;;5036181;28;20173;-75
2022/11/17 00:51:57;;;;;;;5.63;4.70;;;10.80;99.90;;;;;;5036432;28;20182;-75
2022/11/17 00:54:23;;;;;;;5.00;4.03;;;10.70;99.90;;;;;;5035932;28;20680;-75
2022/11/17 00:56:48;;;;;;;5.20;4.70;;;10.70;99.90;;;;;;5036292;28;20171;-75
2022/11/17 00:59:15;;;;;;;4.10;3.70;;;10.80;99.90;;;;;;5036286;28;20207;-75
2022/11/17 01:01:41;;;;;;;6.03;3.93;;;11.00;99.90;;;;;;5036133;28;20282;-75
2022/11/17 01:04:07;;;;;;;4.70;4.20;;;11.10;99.90;;;;;;5035773;28;20407;-75
2022/11/17 01:06:36;;;;;;;4.23;3.93;;;10.90;99.90;;;;;;5035578;28;20460;-75
2022/11/17 01:09:04;;;;;;;4.60;4.17;;;10.90;99.90;;;;;;5036226;28;20195;-75
2022/11/17 01:11:30;;;;;;;5.70;4.07;;;10.90;99.90;;;;;;5035779;28;20420;-75
2022/11/17 01:13:57;;;;;;;4.13;3.60;;;11.00;99.90;;;;;;5035763;28;20440;-75
2022/11/17 01:16:24;;;;;;;4.17;3.77;;;11.10;99.90;;;;;;5035804;28;20440;-75
2022/11/17 01:18:50;;;;;;;3.90;3.50;;;11.10;99.90;;;;;;5035919;28;20896;-75
2022/11/17 01:21:20;;;;;;;3.90;3.50;;;11.10;99.90;;;;;;5034165;28;20457;-75
2022/11/17 01:23:48;;;;;;;4.10;3.40;;;11.20;99.90;;;;;;5034149;28;20491;-75
2022/11/17 01:26:26;;;;;;;4.60;3.93;;;11.30;99.90;;;;;;5035620;28;20428;-75
2022/11/17 01:28:52;;;;;;;5.73;4.30;;;11.20;99.90;;;;;;5035973;28;20395;-75
2022/11/17 01:31:24;;;;;;;5.70;4.73;;;11.20;99.90;;;;;;5035688;28;20429;-75
2022/11/17 01:33:50;;;;;;;4.77;3.97;;;11.20;99.90;;;;;;5035541;28;20417;-75
2022/11/17 01:36:19;;;;;;;6.23;4.50;;;11.10;99.90;;;;;;5035024;28;20477;-76
2022/11/17 01:38:44;;;;;;;4.40;3.97;;;11.00;99.90;;;;;;5035336;28;20417;-75
2022/11/17 01:41:21;;;;;;;5.10;4.70;;;10.90;99.90;;;;;;5035366;28;20821;-75
2022/11/17 01:44:10;;;;;;;5.30;4.60;;;10.90;99.90;;;;;;5035749;28;20155;-75
2022/11/17 01:46:40;;;;;;;4.87;4.10;;;10.90;99.90;;;;;;5034913;28;20818;-75
2022/11/17 01:49:24;;;;;;;4.20;3.80;;;11.00;99.90;;;;;;5035667;28;20407;-75
2022/11/17 01:51:53;;;;;;;4.77;4.37;;;11.10;99.90;;;;;;5034852;28;20404;-75
2022/11/17 01:54:23;;;;;;;4.73;3.90;;;11.10;99.90;;;;;;5034965;28;20398;-75
2022/11/17 01:56:54;;;;;;;4.00;3.27;;;11.20;99.90;;;;;;5035757;28;20464;-75
2022/11/17 01:59:48;;;;;;;5.40;4.73;;;11.10;99.90;;;;;;5035295;28;20427;-75
2022/11/17 02:02:14;;;;;;;4.23;3.83;;;11.10;99.90;;;;;;5035233;28;20449;-76
2022/11/17 02:05:06;;;;;;;4.53;4.13;;;11.10;99.90;;;;;;5033496;28;20531;-76
2022/11/17 02:07:38;;;;;;;4.93;4.53;;;11.20;99.90;;;;;;5034377;28;20263;-75
2022/11/17 02:10:05;;;;;;;4.63;4.20;;;11.10;99.90;;;;;;5033499;28;20412;-75
2022/11/17 02:12:32;;;;;;;5.87;4.93;;;11.10;99.90;;;;;;5033255;28;20423;-76
2022/11/17 02:15:00;;;;;;;5.30;3.97;;;11.00;99.90;;;;;;5034440;28;20457;-76
2022/11/17 02:17:33;;;;;;;4.33;3.93;;;11.00;99.90;;;;;;5033744;28;20426;-76
2022/11/17 02:20:15;;;;;;;5.30;3.80;;;11.00;99.90;;;;;;5033998;28;20420;-76
2022/11/17 02:22:58;;;;;;;7.87;4.37;;;11.00;99.90;;;;;;5034706;28;20412;-75
2022/11/17 02:26:02;;;;;;;4.40;4.00;;;11.00;99.90;;;;;;5034783;28;20421;-77
2022/11/17 02:28:31;;;;;;;3.93;3.43;;;10.80;99.90;;;;;;5034964;28;20429;-75
2022/11/17 02:31:05;;;;;;;4.83;3.90;;;10.80;99.90;;;;;;5035148;28;20403;-76
2022/11/17 02:33:52;;;;;;;4.63;4.23;;;10.80;99.90;;;;;;5033563;28;20454;-75
2022/11/17 02:36:41;;;;;;;4.57;4.13;;;10.80;99.90;;;;;;5038874;28;20522;-75
2022/11/17 02:39:44;;;;;;;4.27;3.87;;;10.70;99.90;;;;;;5052800;28;20750;-75
2022/11/17 02:42:16;;;;;;;5.13;3.70;;;10.70;99.90;;;;;;5023000;28;21013;-75
2022/11/17 02:44:50;;;;;;;5.00;4.60;;;10.60;99.90;;;;;;5033807;28;20433;-75
2022/11/17 02:47:29;;;;;;;5.00;4.60;;;10.50;99.90;;;;;;5034712;28;20395;-76
2022/11/17 02:50:00;;;;;;;6.63;3.50;;;10.40;99.90;;;;;;5033795;28;20451;-76
2022/11/17 02:52:27;;;;;;;4.20;3.50;;;10.40;99.90;;;;;;5034027;28;20464;-75
2022/11/17 02:55:02;;;;;;;5.30;3.50;;;10.40;99.90;;;;;;5055768;23;20825;-72
2022/11/17 02:57:33;;;;;;;4.53;2.57;;;10.50;99.90;;;;;;5053346;28;20928;-75
2022/11/17 03:00:03;;;;;;;3.73;2.73;;;10.60;99.90;;;;;;5053292;28;20412;-74
2022/11/17 03:03:12;;;;;;;4.13;2.83;;;10.70;99.90;;;;;;5052972;28;20790;-74
2022/11/17 03:05:49;;;;;;;4.70;2.77;;;10.80;99.90;;;;;;5060248;28;20500;-74
2022/11/17 03:08:39;;;;;;;4.10;3.07;;;10.90;99.90;;;;;;5074208;28;20513;-73
2022/11/17 03:11:07;;;;;;;3.73;2.73;;;10.90;99.90;;;;;;5074052;28;20380;-73
2022/11/17 03:13:52;;;;;;;4.43;2.53;;;10.90;99.90;;;;;;5073720;28;20392;-74
2022/11/17 03:16:33;;;;;;;6.13;3.00;;;10.90;99.90;;;;;;5073796;28;20967;-73
2022/11/17 03:19:28;;;;;;;3.20;2.90;;;11.00;99.90;;;;;;5074130;28;20396;-74
2022/11/17 03:22:08;;;;;;;3.43;2.73;;;11.20;99.90;;;;;;5055978;28;20440;-72
2022/11/17 03:24:40;;;;;;;4.87;2.80;;;11.30;99.90;;;;;;5053748;28;20392;-73
2022/11/17 03:27:18;;;;;;;4.97;3.27;;;11.30;99.90;;;;;;5053757;28;20876;-74
2022/11/17 03:29:47;;;;;;;5.20;3.17;;;11.40;99.90;;;;;;5054275;28;20381;-73
2022/11/17 03:32:15;;;;;;;4.00;3.07;;;11.20;99.90;;;;;;5053662;28;20410;-73
2022/11/17 03:34:49;;;;;;;3.23;2.93;;;11.10;99.90;;;;;;5053738;28;20929;-74
2022/11/17 03:37:19;;;;;;;3.10;2.80;;;11.00;99.90;;;;;;5053084;28;20443;-73
2022/11/17 03:39:50;;;;;;;3.10;2.60;;;11.00;99.90;;;;;;5053662;28;20752;-73
2022/11/17 03:42:23;;;;;;;3.03;2.53;;;11.10;99.90;;;;;;5053885;28;20439;-74
2022/11/17 03:44:53;;;;;;;2.83;2.60;;;11.10;99.90;;;;;;5053333;28;20405;-74
2022/11/17 03:47:21;;;;;;;4.70;3.07;;;11.20;99.90;;;;;;5053485;28;20377;-73
2022/11/17 03:50:08;;;;;;;3.03;2.73;;;11.20;99.90;;;;;;5058293;28;20403;-73
2022/11/17 03:52:36;;;;;;;2.70;2.50;;;11.20;99.90;;;;;;5051727;28;20432;-72
2022/11/17 03:55:03;;;;;;;3.37;3.07;;;11.20;99.90;;;;;;5052206;28;20408;-73
2022/11/17 03:57:44;;;;;;;3.43;3.00;;;11.20;99.90;;;;;;5053267;28;20389;-74
2022/11/17 04:00:13;;;;;;;3.63;2.80;;;11.10;99.90;;;;;;5053957;28;20382;-74
2022/11/17 04:02:41;;;;;;;3.30;3.00;;;11.00;99.90;;;;;;5053530;28;20930;-73
2022/11/17 04:05:07;;;;;;;3.90;2.97;;;10.90;99.90;;;;;;5056431;28;20405;-73
2022/11/17 04:07:40;;;;;;;3.00;2.50;;;10.90;99.90;;;;;;5060200;28;20409;-73
2022/11/17 04:10:09;;;;;;;4.10;3.20;;;10.90;99.90;;;;;;5060564;28;20407;-73
2022/11/17 04:15:55;;;;;;;6.80;3.17;;;10.90;99.90;;;;;;5061328;28;20421;-73
2022/11/17 04:18:17;;;;;;;4.70;3.47;;;10.90;99.90;;;;;;5060078;28;20911;-74
2022/11/17 04:20:43;;;;;;;4.47;3.40;;;10.80;99.90;;;;;;5058632;28;20992;-73
2022/11/17 04:23:13;;;;;;;5.80;3.50;;;10.80;99.90;;;;;;5058353;28;20496;-73
2022/11/17 04:28:36;;;;;;;4.00;3.40;;;10.80;99.90;;;;;;5059605;28;20376;-73
2022/11/17 04:31:02;;;;;;;5.87;3.60;;;10.80;99.90;;;;;;5059805;28;20442;-73
2022/11/17 04:33:28;;;;;;;3.60;3.17;;;10.80;99.90;;;;;;5059418;28;20782;-73
2022/11/17 04:35:54;;;;;;;4.33;3.83;;;10.90;99.90;;;;;;5058932;28;20428;-73
2022/11/17 04:38:19;;;;;;;4.40;4.00;;;10.80;99.90;;;;;;5059464;28;20195;-73
2022/11/17 04:43:29;;;;;;;7.10;4.20;;;10.80;99.90;;;;;;5059758;28;20162;-73
2022/11/17 04:45:59;;;;;;;4.47;4.07;;;10.80;99.90;;;;;;5074923;28;20420;-73
2022/11/17 04:48:25;;;;;;;4.40;4.00;;;10.70;99.90;;;;;;5079619;28;20205;-71
2022/11/17 04:50:55;;;;;;;5.27;4.40;;;10.70;99.90;;;;;;5073370;28;20405;-73
2022/11/17 04:53:21;;;;;;;4.23;3.90;;;10.60;99.90;;;;;;5059558;28;20461;-73
2022/11/17 04:55:47;;;;;;;5.60;5.10;;;10.60;99.90;;;;;;5059063;28;20478;-74
2022/11/17 04:58:12;;;;;;;5.23;4.43;;;10.60;99.90;;;;;;5059524;28;20948;-73
2022/11/17 05:00:38;;;;;;;6.40;4.27;;;10.70;99.90;;;;;;5059168;28;20190;-73
2022/11/17 05:03:03;;;;;;;5.50;4.73;;;10.60;99.90;;;;;;5059429;28;20206;-74
2022/11/17 05:05:29;;;;;;;6.30;4.90;;;10.60;99.90;;;;;;5059357;28;20268;-73
2022/11/17 05:07:55;;;;;;;4.50;3.70;;;10.60;99.90;;;;;;5059018;28;20161;-73
2022/11/17 05:13:20;;;;;;;7.03;4.63;;;10.70;99.90;;;;;;5059083;28;20166;-74
2022/11/17 05:13:23;;;;;;;5.00;4.50;;;10.70;99.90;;;;;;5059227;28;20537;-74
2022/11/17 05:18:40;;;;;;;5.57;4.30;;;10.70;99.90;;;;;;5056253;28;20429;-74
2022/11/17 05:21:07;;;;;;;4.90;4.40;;;10.60;99.90;;;;;;5053055;28;20438;-75
2022/11/17 05:26:23;;;;;;;4.73;3.57;;;10.80;99.90;;;;;;5056506;28;20439;-75
2022/11/17 05:28:49;;;;;;;3.97;3.63;;;10.80;99.90;;;;;;5056312;28;20393;-74
2022/11/17 05:31:15;;;;;;;5.30;4.27;;;11.00;99.90;;;;;;5056128;28;20772;-74
2022/11/17 05:33:41;;;;;;;4.00;3.70;;;11.00;99.90;;;;;;5055998;28;20167;-74
2022/11/17 05:36:07;;;;;;;4.33;3.93;;;11.10;99.90;;;;;;5055308;28;20787;-74
2022/11/17 05:38:33;;;;;;;4.90;4.03;;;10.90;99.90;;;;;;5055816;28;20174;-73
2022/11/17 05:40:59;;;;;;;5.47;4.50;;;10.80;99.90;;;;;;5055709;28;20951;-74
2022/11/17 05:43:25;;;;;;;4.30;3.90;;;10.70;99.90;;;;;;5055527;28;20637;-73
2022/11/17 05:45:50;;;;;;;5.17;4.53;;;10.70;99.90;;;;;;5055497;28;20451;-74
2022/11/17 05:48:16;;;;;;;4.70;4.10;;;10.70;99.90;;;;;;5061652;28;20910;-74
2022/11/17 05:50:42;;;;;;;4.97;4.20;;;10.70;99.90;;;;;;5072735;28;20690;-73
2022/11/17 05:53:07;;;;;;;3.63;3.33;;;10.90;99.90;;;;;;5055013;28;20175;-74
2022/11/17 05:55:33;;;;;;;5.63;3.90;;;10.90;99.90;;;;;;5073792;28;20222;-74
2022/11/17 05:58:05;;;;;;;5.70;4.70;;;10.90;99.90;;;;;;5075717;28;20158;-74
2022/11/17 06:00:32;;;;;;;5.93;5.20;;;10.70;99.90;;;;;;5075325;28;20443;-74
2022/11/17 06:03:07;;;;;;;6.03;5.13;;;10.70;99.90;;;;;;5075317;28;20413;-74
2022/11/17 06:05:32;;;;;;;4.40;4.00;;;10.60;99.90;;;;;;5074968;28;20415;-71
2022/11/17 06:07:58;;;;;;;5.33;4.70;;;10.50;99.90;;;;;;5074731;28;20397;-74
2022/11/17 06:10:25;;;;;;;5.33;4.90;;;10.50;99.90;;;;;;5075283;28;20166;-74
2022/11/17 06:12:51;;;;;;;5.70;5.20;;;10.40;99.90;;;;;;5074975;28;20195;-73
2022/11/17 06:15:17;;;;;;;5.07;4.57;;;10.40;99.90;;;;;;5074735;28;20506;-74
2022/11/17 06:17:49;;;;;;;6.03;5.30;;;10.40;99.90;;;;;;5074761;28;20178;-75
2022/11/17 06:20:25;;;;;;;6.13;4.80;;;10.50;99.90;;;;;;5074739;28;20163;-73
2022/11/17 06:22:51;;;;;;;6.37;4.80;;;10.50;99.90;;;;;;5054148;28;20421;-73
2022/11/17 06:25:20;;;;;;;5.73;5.23;;;10.60;99.90;;;;;;5054579;28;20429;-73
2022/11/17 06:27:47;;;;;;;5.53;4.57;;;10.60;99.90;;;;;;5054779;28;20538;-74
2022/11/17 06:30:13;;;;;;;4.93;4.43;;;10.70;99.90;;;;;;5053435;28;20784;-73
2022/11/17 06:32:42;;;;;;;4.40;4.00;;;10.70;99.90;;;;;;5054589;28;20408;-71
2022/11/17 06:35:10;;;;;;;4.83;4.40;;;10.80;99.90;;;;;;5054323;28;20170;-73
2022/11/17 06:37:35;;;;;;;4.83;4.33;;;10.80;99.90;;;;;;5057624;28;20413;-73
2022/11/17 06:40:01;;;;;;;5.10;4.13;;;10.70;99.90;;;;;;5074477;28;20401;-73
2022/11/17 06:45:11;;;;;;;3.63;3.33;;;10.60;99.90;;;;;;5074562;28;20248;-74
2022/11/17 06:47:37;;;;;;;6.13;3.90;;;10.60;99.90;;;;;;5074361;28;20413;-74
2022/11/17 06:50:03;;;;;;;4.83;4.10;;;10.60;99.90;;;;;;5076110;28;20174;-73
2022/11/17 06:52:29;;;;;;;5.33;4.60;;;10.60;99.90;;;;;;5057509;28;20185;-74
2022/11/17 06:54:55;;;;;;;4.20;3.57;;;10.70;99.90;;;;;;5053765;28;20551;-73
2022/11/17 06:57:20;;;;;;;5.03;3.80;;;10.60;99.90;;;;;;5054104;28;20176;-73
2022/11/17 06:59:46;;;;;;;6.10;3.90;;;10.80;99.90;;;;;;5054616;28;20176;-73
2022/11/17 07:02:11;;;;;;;4.00;3.20;;;10.80;99.90;;;;;;5053926;28;20633;-73
2022/11/17 07:04:37;;;;;;;5.30;3.17;;;10.80;99.90;;;;;;5053838;28;20170;-74
2022/11/17 07:07:03;;;;;;;3.43;2.97;;;10.70;99.90;;;;;;5053560;28;20639;-74
2022/11/17 07:09:28;;;;;;;3.37;2.80;;;10.80;99.90;;;;;;5053884;28;20183;-74
2022/11/17 07:11:54;;;;;;;2.90;2.37;;;10.80;99.90;;;;;;5053813;28;20347;-74
2022/11/17 07:14:19;;;;;;;3.10;2.83;;;10.90;99.90;;;;;;5053532;28;20178;-73
2022/11/17 07:16:45;;;;;;;2.93;2.67;;;10.80;99.90;;;;;;5053866;28;20247;-74
2022/11/17 07:19:11;;;;;;;3.40;2.57;;;10.80;99.90;;;;;;5053627;28;20259;-74
2022/11/17 07:21:37;;;;;;;2.33;2.07;;;10.80;99.90;;;;;;5052149;28;20222;-74
2022/11/17 07:24:03;;;;;;;3.60;2.53;;;10.80;99.90;;;;;;5053977;28;20851;-74
2022/11/17 07:26:29;;;;;;;3.50;2.90;;;10.80;99.90;;;;;;5053640;28;20194;-74
2022/11/17 07:28:54;;;;;;;3.00;2.60;;;10.90;99.90;;;;;;5054079;28;20258;-74
2022/11/17 07:31:20;;;;;;;2.90;2.70;;;11.00;99.90;;;;;;5053693;28;20652;-75
2022/11/17 07:33:46;;;;;;;2.90;2.70;;;11.10;99.90;;;;;;5053327;28;20806;-73
2022/11/17 07:36:14;;;;;;;4.10;2.60;;;11.00;99.90;;;;;;5052049;28;20475;-73
2022/11/17 07:38:40;;;;;;;3.53;2.50;;;11.10;99.90;;;;;;5053274;28;20194;-74
2022/11/17 07:41:07;;;;;;;3.80;3.03;;;11.30;99.90;;;;;;5052673;28;20456;-74
2022/11/17 07:43:34;;;;;;;2.70;2.13;;;11.30;99.90;;;;;;5066089;28;20418;-74
2022/11/17 07:46:07;;;;;;;5.10;2.30;;;11.40;99.90;;;;;;5073002;28;20440;-74
2022/11/17 07:48:34;;;;;;;2.43;1.73;;;11.40;99.90;;;;;;5073170;28;20501;-74
2022/11/17 07:51:02;;;;;;;2.50;2.30;;;11.30;99.90;;;;;;5071233;28;20409;-74
2022/11/17 07:53:28;;;;;;;2.17;1.70;;;11.30;99.90;;;;;;5052614;28;20416;-75
2022/11/17 07:55:54;;;;;;;3.07;2.30;;;11.40;99.90;;;;;;5052251;28;20547;-74
2022/11/17 07:58:19;;;;;;;2.10;1.57;;;11.50;99.90;;;;;;5053382;28;20460;-75
2022/11/17 08:00:45;;;;;;;2.17;1.30;;;11.70;99.90;;;;;;5053531;28;20436;-72
2022/11/17 08:03:11;;;;;;;2.80;1.50;;;11.90;99.90;;;;;;5053429;28;20229;-74
2022/11/17 08:05:38;;;;;;;4.13;1.47;;;12.10;99.90;;;;;;5053344;28;20196;-74
2022/11/17 08:08:06;;;;;;;1.27;1.17;;;12.20;99.90;;;;;;5052609;28;20173;-75
2022/11/17 08:10:33;;;;;;;2.00;1.30;;;12.30;99.90;;;;;;5053688;28;20439;-75
2022/11/17 08:13:02;;;;;;;2.00;1.57;;;12.30;99.90;;;;;;5053277;28;20771;-74
2022/11/17 08:15:28;;;;;;;2.80;1.63;;;12.40;99.90;;;;;;5052666;28;20464;-74
2022/11/17 08:17:56;;;;;;;2.67;1.10;;;12.50;99.90;;;;;;5052896;28;20893;-74
2022/11/17 08:20:22;;;;;;;3.33;1.47;;;12.70;99.90;;;;;;5053001;28;20444;-75
2022/11/17 08:22:51;;;;;;;3.33;1.33;;;12.80;99.90;;;;;;5051647;28;20480;-75
2022/11/17 08:25:21;;;;;;;2.20;0.80;;;12.80;99.90;;;;;;5052639;28;20428;-73
2022/11/17 08:27:50;;;;;;;2.20;1.20;;;12.60;99.90;;;;;;5052626;28;20416;-75
2022/11/17 08:30:19;;;;;;;2.60;1.00;;;12.70;99.90;;;;;;5058590;28;20422;-74
2022/11/17 08:32:46;;;;;;;3.90;1.23;;;12.90;99.90;;;;;;5066571;28;20423;-73
2022/11/17 08:35:12;;;;;;;1.77;1.30;;;12.90;99.90;;;;;;5060443;28;20452;-72
2022/11/17 08:37:40;;;;;;;1.60;0.90;;;12.80;99.90;;;;;;5052334;28;20907;-72
2022/11/17 08:40:06;;;;;;;1.10;0.70;;;12.90;99.90;;;;;;5052634;28;20185;-72
2022/11/17 08:42:32;;;;;;;2.30;0.97;;;12.90;99.90;;;;;;5061391;28;20455;-72
2022/11/17 08:44:57;;;;;;;1.73;1.30;;;12.90;99.90;;;;;;5072515;28;20896;-73
2022/11/17 08:47:23;;;;;;;1.53;0.80;;;12.90;99.90;;;;;;5066555;28;20176;-72
2022/11/17 08:49:48;;;;;;;1.47;0.87;;;12.90;99.90;;;;;;5067048;28;20168;-73
2022/11/17 08:52:14;;;;;;;4.43;1.17;;;12.70;99.90;;;;;;5061764;28;20587;-72
2022/11/17 08:54:40;;;;;;;1.27;0.80;;;12.80;99.90;;;;;;5056532;28;20180;-72
2022/11/17 08:57:05;;;;;;;1.67;1.20;;;12.70;99.90;;;;;;5056500;28;20215;-72
2022/11/17 08:59:31;;;;;;;1.57;0.97;;;12.80;99.90;;;;;;5056111;28;20226;-72
2022/11/17 09:01:56;;;;;;;1.30;0.80;;;12.80;99.90;;;;;;5056046;28;20196;-74
2022/11/17 09:04:22;;;;;;;1.30;0.70;;;12.90;99.90;;;;;;5056111;28;20656;-72
2022/11/17 09:06:47;;;;;;;2.20;1.00;;;12.80;99.90;;;;;;5056099;28;20210;-73
2022/11/17 09:09:13;;;;;;;2.90;0.97;;;13.00;99.90;;;;;;5055788;28;20177;-73
2022/11/17 09:11:39;;;;;;;1.13;0.70;;;13.00;99.90;;;;;;5055915;28;20168;-72
2022/11/17 09:14:06;;;;;;;1.63;0.80;;;13.10;99.90;;;;;;5055622;28;20181;-73
2022/11/17 09:16:32;;;;;;;2.03;0.87;;;13.10;99.90;;;;;;5055748;28;20197;-73
2022/11/17 09:18:57;;;;;;;1.30;1.20;;;13.20;99.90;;;;;;5055783;28;20465;-74
2022/11/17 09:21:25;;;;;;;1.23;0.57;;;13.30;99.90;;;;;;5054512;28;20223;-73
2022/11/17 09:23:51;;;;;;;1.70;0.70;;;13.40;99.90;;;;;;5064820;28;20181;-72
2022/11/17 09:26:16;;;;;;;1.20;0.80;;;13.40;99.90;;;;;;5055818;28;20476;-73
2022/11/17 09:28:43;;;;;;;1.53;1.17;;;13.50;99.90;;;;;;5055838;28;20789;-73
2022/11/17 09:31:12;;;;;;;1.57;0.70;;;13.40;99.90;;;;;;5055866;28;20620;-73
2022/11/17 09:33:38;;;;;;;2.60;0.70;;;13.40;99.90;;;;;;5063547;28;20954;-73
2022/11/17 09:36:06;;;;;;;3.63;0.90;;;13.60;99.90;;;;;;5075333;28;20428;-72
2022/11/17 09:38:32;;;;;;;3.33;1.20;;;13.70;99.90;;;;;;5075359;28;20181;-72
2022/11/17 09:40:58;;;;;;;2.07;0.70;;;14.00;99.90;;;;;;5075594;28;20459;-73
2022/11/17 09:43:33;;;;;;;2.10;0.80;;;14.20;99.90;;;;;;5063733;28;20634;-73
2022/11/17 09:46:15;;;;;;;3.00;1.10;;;14.30;99.90;;;;;;5072745;28;20439;-72
2022/11/17 09:48:50;;;;;;;2.00;0.80;;;14.10;99.90;;;;;;5067234;28;20855;-74
2022/11/17 09:51:20;;;;;;;2.83;0.87;;;14.20;99.90;;;;;;5054867;28;20397;-73
2022/11/17 09:53:55;;;;;;;2.53;1.10;;;14.00;99.90;;;;;;5054835;28;20406;-72
2022/11/17 09:56:21;;;;;;;2.53;1.30;;;14.10;99.90;;;;;;5057266;28;20541;-74
2022/11/17 09:58:58;;;;;;;1.80;0.80;;;14.20;99.90;;;;;;5075410;28;20409;-75
2022/11/17 10:01:27;;;;;;;2.80;0.90;;;14.40;99.90;;;;;;5062579;28;20477;-74
2022/11/17 10:03:55;;;;;;;3.47;1.10;;;14.30;99.90;;;;;;5054713;28;20418;-74
2022/11/17 10:06:23;;;;;;;2.70;1.20;;;14.00;99.90;;;;;;5054811;28;20494;-74
2022/11/17 10:09:01;;;;;;;3.33;1.00;;;13.90;99.90;;;;;;5055040;28;20936;-73
2022/11/17 10:11:37;;;;;;;2.17;1.07;;;14.20;99.90;;;;;;5058902;28;20553;-72
2022/11/17 10:14:15;;;;;;;2.10;1.00;;;14.00;99.90;;;;;;5074112;28;20410;-72
2022/11/17 10:16:48;;;;;;;3.93;0.97;;;14.00;99.90;;;;;;5064719;28;20441;-75
2022/11/17 10:19:23;;;;;;;1.93;0.90;;;14.20;99.90;;;;;;5054127;28;20444;-74
2022/11/17 10:21:54;;;;;;;5.50;0.83;;;14.40;99.90;;;;;;5053808;28;20457;-74
2022/11/17 10:24:42;;;;;;;2.50;0.93;;;14.40;99.90;;;;;;5054574;28;20406;-75
2022/11/17 10:27:29;;;;;;;3.80;1.17;;;14.20;99.90;;;;;;5054632;28;20429;-74
2022/11/17 10:30:03;;;;;;;2.00;0.90;;;14.10;99.90;;;;;;5071537;28;20981;-75
2022/11/17 10:32:34;;;;;;;3.60;1.00;;;14.30;99.90;;;;;;5074015;28;20410;-75
2022/11/17 10:35:25;;;;;;;3.70;1.40;;;14.30;99.90;;;;;;5074438;28;20889;-74
2022/11/17 10:38:01;;;;;;;3.67;1.03;;;14.60;99.90;;;;;;5072416;28;20442;-74
2022/11/17 10:40:44;;;;;;;3.10;1.20;;;14.80;99.90;;;;;;5074493;28;20916;-74
2022/11/17 10:43:12;;;;;;;2.17;1.30;;;15.00;99.90;;;;;;5074726;28;20380;-74
2022/11/17 10:46:02;;;;;;;1.50;0.70;;;15.50;99.90;;;;;;5074526;28;20916;-72
2022/11/17 10:48:29;;;;;;;1.77;0.80;;;16.10;99.90;;;;;;5062294;28;20502;-74
2022/11/17 10:51:07;;;;;;;3.40;1.30;;;16.40;99.90;;;;;;5074800;28;20396;-75
2022/11/17 10:53:37;;;;;;;1.83;1.00;;;17.00;99.90;;;;;;5054586;28;20436;-75
2022/11/17 10:56:12;;;;;;;4.70;1.40;;;17.60;99.90;;;;;;5053856;28;20469;-74
2022/11/17 10:59:02;;;;;;;2.70;1.10;;;16.60;99.90;;;;;;5054382;28;20475;-73
2022/11/17 11:01:36;;;;;;;2.37;1.30;;;15.60;99.90;;;;;;5054729;28;20459;-70
2022/11/17 11:04:04;;;;;;;2.50;1.00;;;15.50;99.90;;;;;;5053931;28;20435;-74
2022/11/17 11:06:32;;;;;;;3.10;1.10;;;16.20;99.90;;;;;;5054097;28;20524;-74
2022/11/17 11:09:12;;;;;;;4.60;1.77;;;17.10;99.90;;;;;;5053780;28;20420;-74
2022/11/17 11:11:53;;;;;;;1.60;1.00;;;18.00;99.90;;;;;;5054454;28;20754;-74
2022/11/17 11:14:34;;;;;;;2.97;1.30;;;18.80;99.90;;;;;;5053408;28;20412;-73
2022/11/17 11:17:08;;;;;;;4.67;1.57;;;18.80;99.90;;;;;;5054641;28;20428;-73
2022/11/17 11:19:33;;;;;;;4.20;1.37;;;18.90;99.90;;;;;;5053740;28;20397;-76
2022/11/17 11:22:21;;;;;;;2.70;1.30;;;18.90;99.90;;;;;;5057263;28;20939;-76
2022/11/17 11:25:16;;;;;;;2.73;1.13;;;18.90;99.90;;;;;;5055588;28;20625;-77
2022/11/17 11:27:44;;;;;;;3.57;1.47;;;18.50;99.90;;;;;;5059063;28;20397;-79
2022/11/17 11:30:14;;;;;;;5.17;1.40;;;18.30;99.90;;;;;;5063306;28;20810;-78
2022/11/17 11:32:48;;;;;;;4.10;1.40;;;18.60;99.90;;;;;;5056896;28;20401;-74
2022/11/17 11:35:17;;;;;;;7.10;1.30;;;17.50;99.90;;;;;;5070918;28;20493;-73
2022/11/17 11:38:11;;;;;;;3.80;1.80;;;17.20;99.90;;;;;;5073106;28;20457;-73
2022/11/17 11:40:43;;;;;;;3.60;1.43;;;18.50;99.90;;;;;;5062549;28;20423;-75
2022/11/17 11:44:02;;;;;;;5.67;1.60;;;17.60;99.90;;;;;;5073497;28;20422;-73
2022/11/17 11:46:56;;;;;;;4.87;1.50;;;16.30;99.90;;;;;;5031725;28;20519;-74
2022/11/17 11:49:28;;;;;;;5.90;1.70;;;15.40;99.90;;;;;;5073430;28;20379;-72
2022/11/17 11:51:54;;;;;;;4.23;1.80;;;15.20;99.90;;;;;;5068272;28;20424;-73
2022/11/17 11:54:43;;;;;;;4.20;1.80;;;14.90;99.90;;;;;;5053002;28;20400;-73
2022/11/17 11:57:14;;;;;;;4.17;1.70;;;14.90;99.90;;;;;;5053306;28;20240;-74
2022/11/17 11:59:51;;;;;;;4.80;2.00;;;15.00;99.90;;;;;;5053822;28;20395;-74
2022/11/17 12:02:22;;;;;;;3.30;1.43;;;15.40;99.90;;;;;;5053166;28;20433;-76
2022/11/17 12:04:58;;;;;;;7.00;1.30;;;16.10;99.90;;;;;;5052028;28;20414;-74
2022/11/17 12:07:49;;;;;;;5.03;1.60;;;17.30;99.90;;;;;;5053040;28;20397;-76
2022/11/17 12:10:20;;;;;;;3.23;1.63;;;18.60;99.90;;;;;;5051830;28;20405;-72
2022/11/17 12:12:46;;;;;;;3.37;1.57;;;19.00;99.90;;;;;;5053164;28;20481;-75
2022/11/17 12:15:18;;;;;;;6.90;1.50;;;19.40;99.90;;;;;;5053282;28;20433;-73
2022/11/17 12:17:55;;;;;;;5.53;1.40;;;19.20;99.90;;;;;;5053242;28;20405;-72
2022/11/17 12:20:49;;;;;;;3.97;1.57;;;19.20;99.60;;;;;;5053050;28;20412;-73
2022/11/17 12:23:28;;;;;;;4.80;1.40;;;19.90;98.80;;;;;;5054464;28;20446;-74
2022/11/17 12:25:56;;;;;;;3.90;1.50;;;20.70;98.40;;;;;;5073702;28;20515;-75
2022/11/17 12:28:35;;;;;;;4.30;1.10;;;21.50;96.10;;;;;;5073124;28;20447;-76
2022/11/17 12:31:30;;;;;;;2.33;1.37;;;21.70;95.20;;;;;;5056868;28;20812;-75
2022/11/17 12:33:59;;;;;;;6.03;1.63;;;20.30;96.60;;;;;;5056723;28;20456;-76
2022/11/17 12:36:30;;;;;;;4.93;1.30;;;18.70;98.60;;;;;;5056738;28;20460;-75
2022/11/17 12:39:04;;;;;;;4.40;1.70;;;17.30;99.90;;;;;;5055011;28;20935;-75
2022/11/17 12:41:47;;;;;;;5.47;1.63;;;16.40;99.90;;;;;;5056759;28;20535;-74
2022/11/17 12:44:37;;;;;;;5.30;1.53;;;15.70;99.90;;;;;;5056719;28;20792;-72
2022/11/17 12:47:17;;;;;;;6.10;2.40;;;16.00;99.90;;;;;;5056848;28;20945;-72
2022/11/17 12:50:10;;;;;;;5.07;1.37;;;15.80;99.90;;;;;;5056451;28;20464;-73
2022/11/17 12:53:12;;;;;;;5.17;1.87;;;15.70;99.90;;;;;;5056169;28;20412;-74
2022/11/17 12:56:04;;;;;;;4.17;1.50;;;15.30;99.90;;;;;;5056443;28;20450;-72
2022/11/17 12:58:47;;;;;;;5.30;1.77;;;15.40;99.90;;;;;;5056829;28;20396;-75
2022/11/17 13:01:21;;;;;;;6.60;1.73;;;15.20;99.90;;;;;;5056389;28;20818;-74
2022/11/17 13:03:52;;;;;;;3.37;1.43;;;15.10;99.90;;;;;;5056222;28;20411;-75
2022/11/17 13:06:18;;;;;;;6.00;1.53;;;15.20;99.90;;;;;;5056363;28;20434;-75
2022/11/17 13:08:55;;;;;;;8.47;1.67;;;15.20;99.90;;;;;;5055977;28;20490;-75
2022/11/17 13:11:21;;;;;;;5.17;1.50;;;15.00;99.90;;;;;;5054939;28;20429;-73
2022/11/17 13:13:47;;;;;;;8.13;2.30;;;15.10;99.90;;;;;;5056624;28;20420;-74
2022/11/17 13:16:20;;;;;;;7.10;2.30;;;15.20;99.90;;;;;;5056813;28;20196;-75
2022/11/17 13:18:47;;;;;;;6.17;2.20;;;15.40;99.90;;;;;;5056211;28;20215;-74
2022/11/17 13:21:42;;;;;;;6.73;2.13;;;15.50;99.90;;;;;;5075255;28;20474;-74
2022/11/17 13:24:07;;;;;;;9.07;2.17;;;15.30;99.90;;;;;;5051513;28;20878;-74
2022/11/17 13:26:37;;;;;;;4.93;1.83;;;15.40;99.90;;;;;;5056204;28;20523;-74
2022/11/17 13:29:08;;;;;;;7.70;2.30;;;15.30;99.90;;;;;;5055783;28;20541;-73
2022/11/17 13:31:34;;;;;;;8.37;2.03;;;15.20;99.90;;;;;;5055576;28;20461;-74
2022/11/17 13:34:12;;;;;;;4.60;2.23;;;15.40;99.90;;;;;;5055843;28;20907;-74
2022/11/17 13:36:55;;;;;;;7.30;2.20;;;15.40;99.90;;;;;;5055815;28;20424;-73